Time;durP1;ratioP1;P1;durP2;ratioP2;P2;SDS_P1;SDS_P2;PMS_P1;PMS_P2;Temp;Humidity;BMP_temperature;BMP_pressure;BME280_temperature;BME280_humidity;BME280_pressure;Samples;Min_cycle;Max_cycle;Signal;HPM_P1;HPM_P2
2022/08/28 00:01:21;;;;;;;13.85;6.95;;;;;;;22.54;52.94;99308.75;1768958;80;21540;-77
2022/08/28 00:03:48;;;;;;;23.62;7.28;;;;;;;22.54;53.24;99306.05;1763962;80;21035;-79
2022/08/28 00:06:15;;;;;;;19.12;6.85;;;;;;;22.50;53.45;99304.94;1759518;80;21060;-74
2022/08/28 00:08:45;;;;;;;19.70;7.60;;;;;;;22.47;53.19;99297.86;1769857;80;21013;-79
2022/08/28 00:11:11;;;;;;;18.32;6.90;;;;;;;22.46;53.02;99306.49;1767437;80;21347;-77
2022/08/28 00:13:38;;;;;;;17.20;6.78;;;;;;;22.46;53.11;99311.91;1767189;80;21123;-75
2022/08/28 00:16:05;;;;;;;23.20;7.22;;;;;;;22.46;53.45;99302.98;1772296;80;20902;-75
2022/08/28 00:18:31;;;;;;;22.73;6.83;;;;;;;22.47;54.61;99304.08;1769990;80;21012;-77
2022/08/28 00:20:58;;;;;;;16.07;6.05;;;;;;;22.44;55.29;99292.41;1769312;81;21095;-76
2022/08/28 00:23:24;;;;;;;16.95;5.12;;;;;;;22.42;55.97;99288.33;1768653;81;21128;-78
2022/08/28 00:25:51;;;;;;;18.65;6.15;;;;;;;22.36;56.32;99287.47;1780040;80;21183;-75
2022/08/28 00:28:18;;;;;;;19.45;6.25;;;;;;;22.26;56.58;99277.37;1770646;80;21036;-74
2022/08/28 00:30:50;;;;;;;25.55;6.58;;;;;;;22.22;56.81;99275.41;1782071;80;21446;-78
2022/08/28 00:33:31;;;;;;;16.17;5.92;;;;;;;22.15;56.57;99264.23;1776149;79;21532;-75
2022/08/28 00:35:59;;;;;;;15.32;5.97;;;;;;;22.10;56.67;99265.56;1768306;80;21028;-74
2022/08/28 00:38:26;;;;;;;26.23;6.97;;;;;;;22.05;56.24;99264.14;1768796;80;21096;-73
2022/08/28 00:40:56;;;;;;;21.15;6.20;;;;;;;22.01;56.18;99260.86;1769951;80;20997;-74
2022/08/28 00:43:39;;;;;;;15.85;6.08;;;;;;;22.05;55.98;99271.45;1775114;80;21071;-73
2022/08/28 00:46:09;;;;;;;;;;;;;;;22.05;56.07;99264.14;1755254;80;21032;-73
2022/08/28 00:48:36;;;;;;;19.87;6.65;;;;;;;22.06;56.54;99264.95;1767245;80;20173;-74
2022/08/28 00:53:48;;;;;;;24.15;7.50;;;;;;;22.02;56.85;99269.24;1767276;80;21095;-72
2022/08/28 00:56:16;;;;;;;18.62;6.95;;;;;;;22.00;56.85;99270.88;1767906;80;21513;-74
2022/08/28 00:58:44;;;;;;;23.70;8.45;;;;;;;21.99;57.16;99270.58;1773711;80;21059;-76
2022/08/28 01:01:11;;;;;;;23.18;8.83;;;;;;;21.97;57.16;99265.96;1770574;80;21039;-74
2022/08/28 01:03:40;;;;;;;26.57;8.03;;;;;;;21.96;57.32;99263.80;1744357;81;21135;-76
2022/08/28 01:06:07;;;;;;;25.02;7.75;;;;;;;21.96;57.39;99262.96;1769141;80;21547;-76
2022/08/28 01:08:35;;;;;;;16.37;6.05;;;;;;;21.93;57.44;99258.89;1756307;80;21039;-75
2022/08/28 01:11:03;;;;;;;31.35;7.15;;;;;;;21.92;57.81;99257.27;1772559;80;21130;-75
2022/08/28 01:13:29;;;;;;;22.62;7.15;;;;;;;21.92;58.03;99245.62;1772832;80;20973;-75
2022/08/28 01:15:57;;;;;;;17.48;7.20;;;;;;;21.89;58.22;99252.91;1770143;80;21491;-75
2022/08/28 01:18:23;;;;;;;20.75;6.90;;;;;;;21.88;58.23;99249.91;1767055;80;21032;-76
2022/08/28 01:21:28;;;;;;;18.10;6.70;;;;;;;21.84;58.25;99249.59;1740045;82;21027;-77
2022/08/28 01:24:04;;;;;;;19.00;7.20;;;;;;;21.79;58.59;99240.90;1769265;80;21057;-74
2022/08/28 01:26:30;;;;;;;16.90;7.30;;;;;;;21.73;58.79;99239.73;1770149;80;21032;-73
2022/08/28 01:28:58;;;;;;;23.83;7.55;;;;;;;21.69;58.15;99227.80;1744709;81;21905;-75
2022/08/28 01:31:25;;;;;;;16.23;6.47;;;;;;;21.66;58.05;99226.42;1744584;81;21059;-77
2022/08/28 01:33:52;;;;;;;17.50;5.90;;;;;;;21.65;58.09;99227.48;1780861;80;21036;-76
2022/08/28 01:36:19;;;;;;;19.70;7.50;;;;;;;21.64;58.09;99223.70;1755035;80;21021;-75
2022/08/28 01:38:48;;;;;;;24.57;6.87;;;;;;;21.65;57.86;99222.63;1769364;80;22417;-75
2022/08/28 01:41:15;;;;;;;17.73;7.70;;;;;;;21.67;56.84;99225.38;1768502;80;21121;-74
2022/08/28 01:43:42;;;;;;;16.10;5.65;;;;;;;21.73;56.65;99220.80;1782580;80;21013;-75
2022/08/28 01:46:10;;;;;;;18.50;6.15;;;;;;;21.78;56.69;99220.33;1769313;80;21548;-77
2022/08/28 01:48:40;;;;;;;21.05;7.65;;;;;;;21.82;56.44;99217.13;1769136;80;21059;-72
2022/08/28 01:51:07;;;;;;;18.20;6.05;;;;;;;21.84;56.23;99216.34;1752129;80;20992;-75
2022/08/28 01:53:34;;;;;;;14.65;6.17;;;;;;;21.89;55.88;99217.75;1769820;80;21516;-74
2022/08/28 01:56:03;;;;;;;17.37;6.30;;;;;;;21.91;55.98;99206.95;1768650;80;21468;-75
2022/08/28 01:58:30;;;;;;;30.80;6.75;;;;;;;21.94;55.97;99205.61;1748859;81;21075;-76
2022/08/28 02:00:57;;;;;;;15.20;5.80;;;;;;;21.95;56.06;99197.80;1764777;80;21018;-72
2022/08/28 02:03:23;;;;;;;22.67;6.87;;;;;;;21.96;56.17;99194.84;1769652;81;21456;-77
2022/08/28 02:05:50;;;;;;;19.92;6.75;;;;;;;21.98;56.14;99189.16;1770139;80;21136;-74
2022/08/28 02:08:17;;;;;;;22.27;6.90;;;;;;;21.98;56.04;99181.04;1766489;80;20997;-76
2022/08/28 02:10:43;;;;;;;22.73;6.58;;;;;;;21.99;56.13;99182.69;1769170;80;21016;-76
2022/08/28 02:13:11;;;;;;;17.25;6.97;;;;;;;21.99;56.20;99172.67;1766739;80;21040;-76
2022/08/28 02:15:40;;;;;;;18.07;6.75;;;;;;;21.99;56.51;99184.04;1770291;80;21017;-75
2022/08/28 02:18:06;;;;;;;17.95;6.58;;;;;;;21.95;56.72;99186.98;1770811;80;21035;-77
2022/08/28 02:20:33;;;;;;;19.67;7.90;;;;;;;21.92;56.96;99185.61;1769104;80;21501;-78
2022/08/28 02:23:00;;;;;;;23.15;6.58;;;;;;;21.89;57.02;99182.59;1770847;80;21056;-75
2022/08/28 02:25:26;;;;;;;22.13;6.60;;;;;;;21.87;56.96;99176.64;1769085;80;21076;-76
2022/08/28 02:27:55;;;;;;;21.45;6.08;;;;;;;21.86;56.95;99177.69;1770865;80;21020;-77
2022/08/28 02:30:23;;;;;;;22.65;6.78;;;;;;;21.86;56.80;99183.91;1769002;80;21218;-75
2022/08/28 02:32:50;;;;;;;16.85;6.30;;;;;;;21.85;56.80;99175.53;1770375;80;21005;-75
2022/08/28 02:35:17;;;;;;;20.25;6.30;;;;;;;21.86;56.64;99176.34;1769471;80;21067;-75
2022/08/28 02:37:44;;;;;;;19.92;6.28;;;;;;;21.86;56.52;99174.98;1763218;80;21036;-76
2022/08/28 02:40:13;;;;;;;15.63;6.10;;;;;;;21.85;56.39;99173.38;1771697;80;20972;-76
2022/08/28 02:42:41;;;;;;;20.37;7.00;;;;;;;21.88;55.95;99175.55;1771199;79;21130;-76
2022/08/28 02:45:10;;;;;;;17.20;6.83;;;;;;;21.92;55.64;99178.02;1769211;80;21088;-73
2022/08/28 02:47:38;;;;;;;21.50;6.75;;;;;;;21.96;55.35;99181.32;1770088;80;21051;-75
2022/08/28 02:50:06;;;;;;;15.40;6.67;;;;;;;21.99;55.16;99183.49;1769153;80;21004;-76
2022/08/28 02:52:35;;;;;;;15.93;6.80;;;;;;;22.04;55.15;99177.33;1769644;80;21215;-76
2022/08/28 02:55:01;;;;;;;13.05;6.37;;;;;;;22.10;54.89;99180.90;1769757;80;21760;-77
2022/08/28 02:57:29;;;;;;;16.35;5.40;;;;;;;22.14;54.75;99187.42;1771694;80;21079;-76
2022/08/28 02:59:55;;;;;;;29.07;7.70;;;;;;;22.18;54.43;99184.48;1761739;80;21043;-76
2022/08/28 03:02:22;;;;;;;17.40;5.55;;;;;;;22.23;54.11;99192.61;1770002;80;21083;-76
2022/08/28 03:04:49;;;;;;;19.12;6.70;;;;;;;22.26;54.14;99189.98;1769432;80;21476;-76
2022/08/28 03:07:16;;;;;;;18.37;5.83;;;;;;;22.26;54.15;99188.08;1769928;80;21878;-76
2022/08/28 03:09:43;;;;;;;15.75;6.15;;;;;;;22.28;54.08;99190.54;1769637;80;21102;-75
2022/08/28 03:12:12;;;;;;;18.37;7.55;;;;;;;22.30;54.08;99192.45;1770068;80;21020;-79
2022/08/28 03:14:39;;;;;;;16.00;5.67;;;;;;;22.31;54.09;99187.30;1775300;80;21063;-76
2022/08/28 03:17:06;;;;;;;17.42;5.70;;;;;;;22.32;53.90;99190.30;1775889;80;21000;-77
2022/08/28 03:19:33;;;;;;;19.15;5.78;;;;;;;22.33;53.91;99185.98;1780435;79;21210;-78
2022/08/28 03:22:01;;;;;;;22.05;6.45;;;;;;;22.35;53.83;99193.84;1768250;80;20993;-75
2022/08/28 03:24:28;;;;;;;18.95;6.05;;;;;;;22.35;53.77;99200.61;1770308;80;21111;-76
2022/08/28 03:26:54;;;;;;;18.67;6.20;;;;;;;22.36;53.83;99202.23;1764846;80;21083;-76
2022/08/28 03:29:20;;;;;;;18.52;6.05;;;;;;;22.36;53.77;99207.64;1769921;80;21020;-78
2022/08/28 03:31:47;;;;;;;16.40;6.35;;;;;;;22.39;53.59;99213.90;1772434;80;21963;-77
2022/08/28 03:34:13;;;;;;;27.20;7.35;;;;;;;22.38;53.61;99213.61;1767678;80;21052;-76
2022/08/28 03:36:40;;;;;;;17.52;6.37;;;;;;;22.38;53.67;99213.61;1770071;80;21486;-76
2022/08/28 03:39:07;;;;;;;16.27;5.97;;;;;;;22.37;53.69;99214.70;1772279;80;21005;-76
2022/08/28 03:41:36;;;;;;;17.42;6.20;;;;;;;22.36;53.59;99213.05;1770985;80;21522;-76
2022/08/28 03:44:02;;;;;;;24.67;6.75;;;;;;;22.37;53.77;99221.47;1770522;80;21095;-77
2022/08/28 03:46:31;;;;;;;19.92;6.20;;;;;;;22.36;53.87;99222.52;1772066;80;20958;-75
2022/08/28 03:48:59;;;;;;;18.90;6.60;;;;;;;22.35;53.96;99224.42;1768578;80;21028;-77
2022/08/28 03:51:28;;;;;;;17.62;6.30;;;;;;;22.32;54.05;99233.05;1770307;81;21004;-78
2022/08/28 03:53:57;;;;;;;20.37;6.45;;;;;;;22.28;54.04;99236.53;1765457;80;21044;-79
2022/08/28 03:56:25;;;;;;;14.35;6.03;;;;;;;22.26;53.83;99239.48;1768247;81;21243;-80
2022/08/28 03:58:53;;;;;;;13.90;5.47;;;;;;;22.25;53.78;99244.64;1769792;80;21572;-76
2022/08/28 04:01:20;;;;;;;19.98;7.65;;;;;;;22.27;53.68;99241.65;1759389;80;21064;-77
2022/08/28 04:03:46;;;;;;;13.35;6.17;;;;;;;22.29;53.71;99239.50;1770542;80;21075;-77
2022/08/28 04:06:13;;;;;;;24.30;6.65;;;;;;;22.30;53.36;99239.25;1769250;80;21052;-75
2022/08/28 04:08:40;;;;;;;20.10;6.12;;;;;;;22.34;53.35;99240.91;1779485;79;21151;-77
2022/08/28 04:13:13;;;;;;;15.30;6.30;;;;;;;22.48;53.31;99235.33;1878659;75;23392;-78
2022/08/28 04:15:40;;;;;;;23.27;6.12;;;;;;;22.51;53.75;99240.23;1835359;75;20960;-77
2022/08/28 04:18:08;;;;;;;15.50;6.17;;;;;;;22.56;53.74;99237.58;1825812;75;21223;-78
2022/08/28 04:20:35;;;;;;;22.70;6.05;;;;;;;22.62;53.83;99238.95;1838836;77;21487;-76
2022/08/28 04:23:02;;;;;;;14.80;5.58;;;;;;;22.68;53.83;99242.00;1839470;77;20971;-76
2022/08/28 04:25:29;;;;;;;19.35;6.62;;;;;;;22.73;53.84;99242.82;1847885;77;21031;-76
2022/08/28 04:27:56;;;;;;;13.35;6.33;;;;;;;22.79;53.89;99238.26;1836905;75;20981;-77
2022/08/28 04:30:23;;;;;;;16.42;6.87;;;;;;;22.85;54.10;99237.75;1848151;75;21475;-77
2022/08/28 04:32:49;;;;;;;17.17;6.72;;;;;;;22.89;54.19;99238.34;1845959;77;20946;-76
2022/08/28 04:35:15;;;;;;;18.55;6.28;;;;;;;22.93;54.42;99237.29;1842836;77;20912;-75
2022/08/28 04:37:45;;;;;;;23.52;7.10;;;;;;;22.94;54.78;99232.94;1851727;77;20974;-76
2022/08/28 04:40:14;;;;;;;19.12;6.15;;;;;;;22.97;55.14;99232.42;1849542;77;21546;-76
2022/08/28 04:42:41;;;;;;;23.35;6.20;;;;;;;22.97;55.47;99240.55;1853913;77;21135;-77
2022/08/28 04:45:08;;;;;;;18.20;6.75;;;;;;;22.96;55.65;99248.39;1853865;77;21030;-76
2022/08/28 04:47:37;;;;;;;18.90;7.22;;;;;;;22.95;55.83;99237.30;1847547;77;20996;-79
2022/08/28 04:50:05;;;;;;;17.20;6.75;;;;;;;22.94;56.20;99231.58;1829665;75;21005;-75
2022/08/28 04:52:32;;;;;;;18.92;6.25;;;;;;;22.94;56.55;99230.23;1856028;77;20998;-73
2022/08/28 04:54:59;;;;;;;16.97;7.08;;;;;;;22.95;56.87;99234.58;1850781;77;21086;-73
2022/08/28 04:57:26;;;;;;;18.95;6.85;;;;;;;22.96;57.24;99234.04;1807635;77;21052;-73
2022/08/28 04:59:52;;;;;;;23.90;6.92;;;;;;;22.96;57.44;99237.55;1845856;75;20987;-76
2022/08/28 05:02:18;;;;;;;17.87;8.08;;;;;;;22.97;57.59;99237.04;1841038;77;20974;-76
2022/08/28 05:04:45;;;;;;;17.52;7.30;;;;;;;22.99;57.72;99240.84;1847308;77;21007;-77
2022/08/28 05:07:12;;;;;;;17.80;6.47;;;;;;;23.00;57.70;99243.81;1849699;77;21086;-76
2022/08/28 05:09:39;;;;;;;20.25;7.08;;;;;;;23.02;57.70;99241.66;1845152;77;21011;-75
2022/08/28 05:12:06;;;;;;;16.55;7.85;;;;;;;23.04;57.75;99244.95;1853373;77;21081;-74
2022/08/28 05:14:35;;;;;;;16.70;7.22;;;;;;;23.06;57.66;99240.89;1856816;77;21474;-76
2022/08/28 05:17:02;;;;;;;21.23;8.00;;;;;;;23.09;57.65;99240.38;1840520;75;21096;-75
2022/08/28 05:19:28;;;;;;;17.65;7.80;;;;;;;23.10;57.97;99245.25;1854598;77;21568;-76
2022/08/28 05:21:55;;;;;;;20.37;8.13;;;;;;;23.09;57.91;99242.28;1850020;77;21439;-75
2022/08/28 05:24:21;;;;;;;13.20;7.00;;;;;;;23.08;57.84;99242.83;1846521;77;21021;-77
2022/08/28 05:26:48;;;;;;;15.50;7.92;;;;;;;23.10;57.98;99241.19;1810011;78;21067;-75
2022/08/28 05:29:15;;;;;;;20.68;7.55;;;;;;;23.11;58.09;99240.13;1791792;78;21099;-76
2022/08/28 05:31:42;;;;;;;18.12;7.08;;;;;;;23.11;58.01;99237.41;1808779;77;21105;-76
2022/08/28 05:34:09;;;;;;;26.77;7.90;;;;;;;23.13;57.68;99243.38;1824278;78;21064;-75
2022/08/28 05:36:36;;;;;;;18.20;7.42;;;;;;;23.09;57.52;99241.73;1799263;78;21497;-77
2022/08/28 05:39:06;;;;;;;26.60;8.85;;;;;;;23.06;57.71;99241.44;1791778;80;21025;-77
2022/08/28 05:41:32;;;;;;;15.40;7.10;;;;;;;23.03;57.45;99235.20;1808717;78;21054;-77
2022/08/28 05:44:02;;;;;;;16.25;7.20;;;;;;;23.01;57.07;99234.62;1798833;79;21132;-79
2022/08/28 05:46:31;;;;;;;15.93;7.00;;;;;;;23.00;57.12;99233.78;1778749;78;21001;-79
2022/08/28 05:48:59;;;;;;;12.93;7.47;;;;;;;22.96;57.51;99241.62;1792185;79;21088;-77
2022/08/28 05:51:26;;;;;;;21.85;7.95;;;;;;;22.93;58.06;99247.58;1785307;78;21474;-78
2022/08/28 05:53:52;;;;;;;17.30;6.92;;;;;;;22.91;57.71;99251.63;1800869;79;21041;-76
2022/08/28 05:56:28;;;;;;;20.75;8.15;;;;;;;22.87;58.04;99254.05;1811429;78;21115;-73
2022/08/28 05:59:00;;;;;;;15.38;7.42;;;;;;;22.86;57.88;99259.16;1804833;78;21024;-77
2022/08/28 06:01:29;;;;;;;21.27;8.20;;;;;;;22.87;57.62;99257.27;1805829;78;21083;-83
2022/08/28 06:04:00;;;;;;;18.23;8.18;;;;;;;22.85;58.00;99259.42;1776580;79;21122;-81
2022/08/28 06:06:28;;;;;;;17.25;7.22;;;;;;;22.82;58.53;99254.00;1817615;78;21047;-83
2022/08/28 06:08:57;;;;;;;19.05;7.80;;;;;;;22.83;58.41;99261.06;1784905;78;21113;-80
2022/08/28 06:11:23;;;;;;;23.25;8.98;;;;;;;22.84;58.71;99258.61;1809464;78;20978;-82
2022/08/28 06:13:50;;;;;;;26.33;8.98;;;;;;;22.85;58.47;99255.36;1809600;78;21104;-81
2022/08/28 06:16:18;;;;;;;22.45;8.23;;;;;;;22.88;58.32;99258.91;1802987;78;21040;-82
2022/08/28 06:18:45;;;;;;;21.05;9.65;;;;;;;22.92;58.23;99253.25;1776883;80;21691;-82
2022/08/28 06:21:12;;;;;;;19.90;8.78;;;;;;;22.96;58.14;99265.19;1782677;80;21501;-83
2022/08/28 06:23:40;;;;;;;19.90;8.88;;;;;;;23.00;57.98;99262.23;1776366;80;20977;-82
2022/08/28 06:26:06;;;;;;;27.67;9.30;;;;;;;23.05;58.06;99266.91;1767898;78;21066;-80
2022/08/28 06:28:33;;;;;;;16.25;7.78;;;;;;;23.13;57.96;99269.12;1763076;79;21053;-82
2022/08/28 06:31:02;;;;;;;20.95;7.83;;;;;;;23.22;57.95;99262.13;1783089;79;21636;-82
2022/08/28 06:33:31;;;;;;;21.23;8.90;;;;;;;23.27;58.20;99264.03;1748588;78;21060;-81
2022/08/28 06:35:58;;;;;;;25.23;8.45;;;;;;;23.26;58.16;99267.30;1748987;80;21068;-80
2022/08/28 06:38:25;;;;;;;19.23;8.55;;;;;;;23.30;58.03;99274.36;1751566;81;20989;-83
2022/08/28 06:40:54;;;;;;;18.30;8.65;;;;;;;23.37;58.15;99276.27;1780982;78;21018;-82
2022/08/28 06:43:23;;;;;;;18.00;7.87;;;;;;;23.48;58.56;99290.16;1772577;78;21084;-84
2022/08/28 06:45:53;;;;;;;22.55;8.48;;;;;;;23.60;58.32;99284.51;1782736;78;21117;-84
2022/08/28 06:48:20;;;;;;;22.32;8.95;;;;;;;23.66;57.93;99283.47;1791543;79;21010;-82
2022/08/28 06:50:54;;;;;;;20.15;9.45;;;;;;;23.70;57.70;99283.73;1813267;79;21029;-80
2022/08/28 06:53:24;;;;;;;19.40;8.53;;;;;;;23.79;57.32;99279.46;1818035;78;21021;-79
2022/08/28 06:56:08;;;;;;;18.12;8.43;;;;;;;23.89;56.97;99275.96;1806588;78;20994;-81
2022/08/28 06:58:40;;;;;;;21.27;9.18;;;;;;;24.01;56.72;99275.72;1818067;78;21138;-82
2022/08/28 07:01:16;;;;;;;23.10;9.40;;;;;;;24.12;56.41;99274.11;1818219;78;21033;-81
2022/08/28 07:03:44;;;;;;;22.15;9.13;;;;;;;24.23;56.13;99275.50;1801606;79;21052;-83
2022/08/28 07:06:12;;;;;;;19.37;9.25;;;;;;;24.28;55.94;99272.25;1788582;78;21579;-82
2022/08/28 07:08:40;;;;;;;20.15;9.13;;;;;;;24.36;55.93;99271.42;1823002;77;21101;-81
2022/08/28 07:11:17;;;;;;;17.17;8.68;;;;;;;24.46;55.84;99272.80;1755623;80;21135;-80
2022/08/28 07:13:45;;;;;;;19.77;9.13;;;;;;;24.51;55.55;99266.87;1767303;80;21570;-84
2022/08/28 07:16:13;;;;;;;19.32;7.95;;;;;;;24.56;54.99;99261.16;1806957;78;20969;-83
2022/08/28 07:18:42;;;;;;;24.85;9.03;;;;;;;24.49;54.56;99260.03;1788534;79;21001;-82
2022/08/28 07:21:09;;;;;;;23.18;8.15;;;;;;;24.39;54.66;99258.68;1803618;79;21008;-83
2022/08/28 07:23:37;;;;;;;24.45;8.90;;;;;;;24.24;54.61;99258.12;1812712;79;21170;-83
2022/08/28 07:26:06;;;;;;;27.73;8.63;;;;;;;24.09;54.42;99257.03;1810888;79;21060;-84
2022/08/28 07:28:32;;;;;;;31.35;8.48;;;;;;;23.99;54.70;99261.61;1810197;79;21064;-84
2022/08/28 07:31:03;;;;;;;26.85;8.53;;;;;;;23.92;54.96;99257.81;1800928;79;21121;-83
2022/08/28 07:33:30;;;;;;;26.60;8.08;;;;;;;23.90;54.98;99262.14;1790430;79;21094;-85
2022/08/28 07:35:57;;;;;;;27.02;9.75;;;;;;;23.94;55.19;99264.59;1800762;79;21084;-84
2022/08/28 07:38:24;;;;;;;27.20;8.70;;;;;;;24.02;55.53;99264.60;1785295;79;21067;-82
2022/08/28 07:40:51;;;;;;;27.10;8.88;;;;;;;24.19;55.69;99262.20;1795699;79;21107;-85
2022/08/28 07:46:06;;;;;;;29.98;10.80;;;;;;;24.47;56.13;99258.12;1803226;79;21048;-84
2022/08/28 07:48:34;;;;;;;23.52;9.85;;;;;;;24.62;55.91;99253.28;1793833;79;21975;-83
2022/08/28 07:51:02;;;;;;;20.08;9.73;;;;;;;24.74;55.59;99252.44;1813392;79;21291;-85
2022/08/28 07:53:28;;;;;;;20.37;9.80;;;;;;;24.77;55.43;99249.19;1810473;79;21048;-84
2022/08/28 07:55:55;;;;;;;25.20;9.75;;;;;;;24.84;56.25;99255.69;1782498;79;21013;-84
2022/08/28 07:58:24;;;;;;;18.73;9.18;;;;;;;24.87;56.95;99260.03;1805254;79;20950;-83
2022/08/28 08:00:52;;;;;;;20.80;9.68;;;;;;;24.84;57.86;99261.95;1783821;79;21244;-86
2022/08/28 08:03:19;;;;;;;19.57;9.00;;;;;;;24.86;59.01;99267.92;1790281;79;21000;-87
2022/08/28 08:05:57;;;;;;;29.07;11.08;;;;;;;24.90;59.25;99264.13;1805086;79;21172;-85
2022/08/28 08:08:24;;;;;;;21.50;9.83;;;;;;;24.95;59.43;99264.09;1802214;79;20989;-86
2022/08/28 08:11:10;;;;;;;23.57;10.18;;;;;;;25.05;58.75;99259.19;1790908;79;21032;-87
2022/08/28 08:13:37;;;;;;;25.35;9.65;;;;;;;25.11;57.92;99258.08;1812014;78;21139;-86
2022/08/28 08:16:11;;;;;;;24.25;9.38;;;;;;;25.13;57.28;99255.92;1803682;78;20986;-86
2022/08/28 08:18:39;;;;;;;23.45;8.75;;;;;;;25.20;57.57;99251.54;1786448;80;21044;-85
2022/08/28 08:21:08;;;;;;;22.82;9.75;;;;;;;25.32;56.99;99256.14;1774332;80;20954;-83
2022/08/28 08:23:36;;;;;;;19.77;9.15;;;;;;;25.47;56.13;99253.92;1788053;80;21088;-85
2022/08/28 08:26:05;;;;;;;22.70;9.85;;;;;;;25.60;56.26;99251.16;1774359;80;21145;-86
2022/08/28 08:28:34;;;;;;;25.02;10.18;;;;;;;25.75;55.63;99254.32;1777980;79;20959;-86
2022/08/28 08:31:12;;;;;;;19.15;8.58;;;;;;;25.90;55.10;99246.08;1785917;80;21015;-86
2022/08/28 08:33:45;;;;;;;19.67;9.78;;;;;;;26.05;54.99;99244.64;1761111;80;21088;-83
2022/08/28 08:36:14;;;;;;;23.05;9.43;;;;;;;26.23;54.78;99244.54;1769652;80;21516;-85
2022/08/28 08:38:41;;;;;;;28.60;10.40;;;;;;;26.41;54.76;99243.03;1777894;80;21239;-86
2022/08/28 08:41:34;;;;;;;21.45;9.55;;;;;;;26.57;54.38;99248.34;1771438;80;20990;-84
2022/08/28 08:44:27;;;;;;;;;;;;;;;26.70;53.44;99244.19;1772708;80;21041;-86
2022/08/28 08:47:21;;;;;;;21.87;9.73;;;;;;;27.13;53.01;99245.64;1782978;80;20153;-84
2022/08/28 08:50:08;;;;;;;23.75;9.33;;;;;;;27.13;53.01;99245.64;1783211;80;21447;-85
2022/08/28 08:53:09;;;;;;;21.73;9.83;;;;;;;27.32;52.08;99245.17;1727728;81;21125;-85
2022/08/28 08:55:51;;;;;;;18.65;9.40;;;;;;;27.49;51.53;99247.43;1816091;79;21022;-83
2022/08/28 08:58:37;;;;;;;17.95;9.93;;;;;;;27.64;51.04;99247.77;1761264;80;21074;-86
2022/08/28 09:01:29;;;;;;;27.55;10.45;;;;;;;27.85;50.50;99249.13;1773071;79;21012;-84
2022/08/28 09:04:09;;;;;;;31.82;10.98;;;;;;;28.19;49.99;99252.20;1803279;79;20934;-86
2022/08/28 09:06:47;;;;;;;19.05;8.05;;;;;;;28.48;49.73;99249.02;1791078;80;21259;-82
2022/08/28 09:09:29;;;;;;;18.87;8.10;;;;;;;28.66;47.01;99248.17;1792577;80;21045;-84
2022/08/28 09:12:02;;;;;;;20.68;8.63;;;;;;;28.78;45.62;99249.06;1781758;80;21049;-83
2022/08/28 09:15:03;;;;;;;14.33;7.20;;;;;;;28.88;45.29;99254.36;1811086;78;21014;-85
2022/08/28 09:17:31;;;;;;;20.17;7.95;;;;;;;29.00;44.79;99249.77;1779076;80;21397;-85
2022/08/28 09:19:57;;;;;;;23.40;10.55;;;;;;;29.13;44.60;99254.47;1813018;78;21572;-85
2022/08/28 09:22:24;;;;;;;22.20;14.53;;;;;;;29.17;43.58;99250.57;1807547;78;21042;-86
2022/08/28 09:24:50;;;;;;;18.95;7.15;;;;;;;29.19;43.33;99249.70;1822433;78;21025;-86
2022/08/28 09:27:30;;;;;;;17.95;7.37;;;;;;;29.21;43.30;99246.91;1804882;78;21028;-85
2022/08/28 09:30:02;;;;;;;20.05;7.50;;;;;;;29.27;43.26;99250.92;1793153;78;21048;-86
2022/08/28 09:32:43;;;;;;;14.98;8.50;;;;;;;29.36;42.97;99256.75;1805335;78;21109;-86
2022/08/28 09:35:32;;;;;;;14.80;8.40;;;;;;;29.43;42.50;99260.99;1817760;78;21038;-86
2022/08/28 09:38:24;;;;;;;14.50;7.35;;;;;;;29.48;42.60;99258.16;1796277;77;21049;-84
2022/08/28 09:43:47;;;;;;;11.78;6.35;;;;;;;29.59;41.83;99253.53;1799909;78;21105;-86
2022/08/28 09:46:29;;;;;;;11.18;6.37;;;;;;;29.67;41.33;99253.91;1795014;80;21194;-85
2022/08/28 09:49:11;;;;;;;11.08;7.30;;;;;;;29.70;40.54;99254.67;1777635;80;21297;-84
2022/08/28 09:51:38;;;;;;;13.40;6.47;;;;;;;29.68;40.51;99252.23;1757756;81;20957;-86
2022/08/28 09:54:32;;;;;;;15.32;7.03;;;;;;;29.77;39.91;99253.73;1785410;80;21022;-85
2022/08/28 09:56:58;;;;;;;13.80;6.60;;;;;;;30.09;39.86;99244.48;1700139;84;21096;-84
2022/08/28 09:59:26;;;;;;;14.28;5.92;;;;;;;30.48;38.91;99237.57;1830581;77;21482;-86
2022/08/28 10:02:23;;;;;;;10.55;6.17;;;;;;;30.75;38.64;99242.08;1823951;77;21015;-85
2022/08/28 10:05:09;;;;;;;17.10;6.62;;;;;;;30.90;38.32;99243.61;1845211;77;21031;-86
2022/08/28 10:07:50;;;;;;;11.83;6.28;;;;;;;31.03;38.06;99250.70;1851687;77;21052;-85
2022/08/28 10:10:35;;;;;;;12.37;6.55;;;;;;;31.09;37.93;99248.86;1825684;77;21015;-85
2022/08/28 10:13:23;;;;;;;15.23;6.42;;;;;;;31.09;37.91;99248.86;1847727;77;21399;-84
2022/08/28 10:16:10;;;;;;;14.03;6.70;;;;;;;31.06;38.09;99248.14;1849533;77;21080;-86
2022/08/28 10:18:48;;;;;;;13.65;6.42;;;;;;;31.14;38.41;99245.98;1792953;79;21036;-85
2022/08/28 10:21:30;;;;;;;11.97;6.28;;;;;;;31.33;38.31;99236.66;1778280;80;21013;-83
2022/08/28 10:24:14;;;;;;;11.85;6.80;;;;;;;31.72;37.93;99250.12;1797883;78;21557;-86
2022/08/28 10:26:58;;;;;;;12.40;7.25;;;;;;;32.00;36.95;99248.44;1805206;78;21113;-84
2022/08/28 10:29:54;;;;;;;13.08;6.87;;;;;;;31.85;36.89;99246.42;1821470;77;20915;-85
2022/08/28 10:32:51;;;;;;;13.03;7.92;;;;;;;31.73;37.44;99246.23;1744578;80;21071;-87
2022/08/28 10:35:25;;;;;;;14.35;7.28;;;;;;;31.79;37.49;99242.19;1786646;80;21120;-85
2022/08/28 10:38:17;;;;;;;10.43;6.92;;;;;;;31.68;37.59;99237.59;1773035;79;21079;-86
2022/08/28 10:40:52;;;;;;;9.40;6.17;;;;;;;31.83;37.22;99239.61;1791953;79;21514;-85
2022/08/28 10:43:46;;;;;;;7.78;5.80;;;;;;;32.04;36.71;99235.12;1790898;79;21403;-85
2022/08/28 10:46:23;;;;;;;11.10;5.92;;;;;;;32.50;36.27;99239.11;1791046;79;21643;-87
2022/08/28 10:49:10;;;;;;;9.23;6.40;;;;;;;33.17;34.66;99235.47;1789217;79;21005;-85
2022/08/28 10:51:48;;;;;;;9.85;5.87;;;;;;;33.91;33.43;99231.06;1816973;78;20966;-86
2022/08/28 10:54:35;;;;;;;10.40;6.85;;;;;;;34.75;32.71;99235.06;1816139;78;21132;-85
2022/08/28 10:57:41;;;;;;;11.63;7.00;;;;;;;35.64;31.64;99226.92;1817589;78;21630;-85
2022/08/28 11:00:19;;;;;;;11.43;6.53;;;;;;;36.59;31.17;99224.28;1826222;78;21005;-86
2022/08/28 11:02:56;;;;;;;12.75;7.28;;;;;;;37.80;29.89;99222.83;1792976;78;21064;-88
2022/08/28 11:05:30;;;;;;;10.65;7.47;;;;;;;38.64;28.92;99225.51;1796717;78;21038;-85
2022/08/28 11:08:00;;;;;;;12.58;7.67;;;;;;;39.08;28.53;99234.00;1801169;78;21473;-85
2022/08/28 11:10:38;;;;;;;13.35;7.70;;;;;;;39.57;28.16;99233.75;1799648;78;21001;-85
2022/08/28 11:13:06;;;;;;;11.95;8.40;;;;;;;40.23;27.62;99225.25;1793070;79;21039;-87
2022/08/28 11:15:38;;;;;;;10.53;8.20;;;;;;;40.78;27.30;99228.83;1827495;78;21045;-85
2022/08/28 11:18:34;;;;;;;11.88;7.65;;;;;;;41.25;27.08;99230.00;1821250;78;21027;-85
2022/08/28 11:21:26;;;;;;;10.78;8.53;;;;;;;41.90;26.60;99231.78;1724680;82;21860;-85
2022/08/28 11:24:07;;;;;;;12.23;9.35;;;;;;;42.53;26.31;99230.98;1753082;79;21036;-86
2022/08/28 11:27:00;;;;;;;16.35;10.45;;;;;;;43.06;26.00;99235.60;1780104;78;21047;-84
2022/08/28 11:30:10;;;;;;;13.13;9.68;;;;;;;43.57;25.69;99231.55;1745109;79;21041;-86
2022/08/28 11:32:54;;;;;;;20.02;11.43;;;;;;;43.61;25.52;99230.93;1789406;79;21037;-86
2022/08/28 11:35:35;;;;;;;16.97;12.82;;;;;;;42.96;25.90;99240.82;1787670;78;21348;-85
2022/08/28 11:38:02;;;;;;;17.92;14.73;;;;;;;42.31;26.34;99245.48;1791448;79;21048;-86
2022/08/28 11:40:49;;;;;;;19.67;14.83;;;;;;;41.70;26.65;99245.81;1786646;79;21076;-88
2022/08/28 11:43:21;;;;;;;20.55;16.27;;;;;;;40.90;27.22;99252.80;1774520;79;21518;-87
2022/08/28 11:46:04;;;;;;;21.52;17.57;;;;;;;40.05;27.90;99247.91;1788289;79;21071;-84
2022/08/28 11:48:41;;;;;;;22.45;18.82;;;;;;;39.59;28.30;99250.85;1788908;79;21138;-83
2022/08/28 11:51:18;;;;;;;23.25;18.85;;;;;;;39.58;28.32;99243.11;1783641;79;21001;-84
2022/08/28 11:54:19;;;;;;;23.65;18.87;;;;;;;40.09;27.94;99232.05;1809643;77;21474;-83
2022/08/28 11:56:51;;;;;;;26.07;17.92;;;;;;;40.80;27.59;99234.81;1809329;78;21039;-85